createdAt,value
2019-04-05T00:00:54.376Z,95028.41
2019-04-05T00:03:22.834Z,95015.41
2019-04-05T00:05:51.378Z,95031.16
2019-04-05T00:08:19.834Z,95031.16
2019-04-05T00:10:48.265Z,95041.00
2019-04-05T00:13:16.808Z,95050.89
2019-04-05T00:15:46.014Z,95048.55
2019-04-05T00:18:14.460Z,95049.88
2019-04-05T00:20:42.919Z,95051.72
2019-04-05T00:23:11.449Z,95049.26
2019-04-05T00:25:39.875Z,95046.80
2019-04-05T00:28:08.337Z,95037.38
2019-04-05T00:30:36.799Z,95040.35
2019-04-05T00:33:05.319Z,95048.52
2019-04-05T00:35:33.756Z,95049.66
2019-04-05T00:38:02.230Z,95052.94
2019-04-05T00:40:30.691Z,95046.29
2019-04-05T00:42:59.217Z,95046.17
2019-04-05T00:45:28.761Z,95041.88
2019-04-05T00:47:58.534Z,95044.14
2019-04-05T00:50:27.167Z,95049.77
2019-04-05T00:52:55.587Z,95047.00
2019-04-05T00:55:24.034Z,95054.27
2019-04-05T00:57:52.773Z,95058.33
2019-04-05T01:00:21.371Z,95053.33
2019-04-05T01:02:49.823Z,95057.11
2019-04-05T01:05:18.356Z,95057.50
2019-04-05T01:07:46.862Z,95067.82
2019-04-05T01:10:16.452Z,95067.82
2019-04-05T01:12:46.389Z,95067.20
2019-04-05T01:15:15.779Z,95063.94
2019-04-05T01:17:44.298Z,95068.94
2019-04-05T01:20:14.195Z,95079.57
2019-04-05T01:22:44.477Z,95085.59
2019-04-05T01:25:13.016Z,95096.42
2019-04-05T01:27:41.899Z,95086.10
2019-04-05T01:30:12.938Z,95095.52
2019-04-05T01:32:41.469Z,95091.34
2019-04-05T01:35:09.974Z,95089.00
2019-04-05T01:37:38.646Z,95096.55
2019-04-05T01:40:08.661Z,95086.23
2019-04-05T01:42:38.271Z,95089.91
2019-04-05T01:45:10.257Z,95097.56
2019-04-05T01:47:38.955Z,95087.94
2019-04-05T01:50:10.440Z,95096.23
2019-04-05T01:52:40.031Z,95093.70
2019-04-05T01:55:09.738Z,95094.91
2019-04-05T01:57:38.204Z,95100.72
2019-04-05T02:00:10.050Z,95101.03
2019-04-05T02:02:38.664Z,95094.00
2019-04-05T02:05:08.958Z,95097.76
2019-04-05T02:07:38.241Z,95088.38
2019-04-05T02:10:11.940Z,95083.56
2019-04-05T02:12:40.832Z,95085.01
2019-04-05T02:15:12.321Z,95087.95
2019-04-05T02:17:40.912Z,95092.69
2019-04-05T02:20:09.700Z,95091.27
2019-04-05T02:22:38.303Z,95090.26
2019-04-05T02:25:07.265Z,95073.69
2019-04-05T02:27:35.860Z,95078.38
2019-04-05T02:30:06.457Z,95082.68
2019-04-05T02:32:35.037Z,95076.74
2019-04-05T02:35:04.422Z,95086.66
2019-04-05T02:37:32.969Z,95089.20
2019-04-05T02:40:01.476Z,95081.66
2019-04-05T02:42:30.585Z,95080.41
2019-04-05T02:44:59.700Z,95075.40
2019-04-05T02:47:28.600Z,95081.10
2019-04-05T02:49:58.512Z,95080.79
2019-04-05T02:52:28.119Z,95076.22
2019-04-05T02:54:57.122Z,95073.13
2019-04-05T02:57:27.333Z,95073.00
2019-04-05T02:59:56.313Z,95076.87
2019-04-05T03:02:25.501Z,95075.27
2019-04-05T03:04:54.140Z,95077.19
2019-04-05T03:07:22.720Z,95069.34
2019-04-05T03:09:51.955Z,95067.50
2019-04-05T03:12:21.232Z,95065.27
2019-04-05T03:14:51.231Z,95064.22
2019-04-05T03:17:21.443Z,95063.20
2019-04-05T03:19:52.882Z,95062.50
2019-04-05T03:22:23.471Z,95066.50
2019-04-05T03:24:52.370Z,95062.23
2019-04-05T03:27:23.868Z,95064.47
2019-04-05T03:29:53.179Z,95062.44
2019-04-05T03:32:22.476Z,95063.45
2019-04-05T03:34:51.014Z,95072.36
2019-04-05T03:37:19.734Z,95067.55
2019-04-05T03:39:48.854Z,95060.67
2019-04-05T03:42:17.457Z,95059.86
2019-04-05T03:44:47.174Z,95058.84
2019-04-05T03:47:16.397Z,95065.91
2019-04-05T03:49:46.657Z,95062.13
2019-04-05T03:52:15.190Z,95066.42
2019-04-05T03:54:43.907Z,95066.62
2019-04-05T03:57:12.510Z,95072.36
2019-04-05T03:59:41.196Z,95086.47
2019-04-05T04:02:10.110Z,95090.45
2019-04-05T04:04:38.712Z,95084.13
2019-04-05T04:07:07.507Z,95083.89
2019-04-05T04:09:36.138Z,95081.16
2019-04-05T04:12:05.122Z,95085.14
2019-04-05T04:14:33.643Z,95088.94
2019-04-05T04:17:12.165Z,95082.91
2019-04-05T04:19:33.488Z,95082.59
2019-04-05T04:22:20.014Z,95082.63
2019-04-05T04:24:48.824Z,95076.69
2019-04-05T04:27:17.826Z,95080.98
2019-04-05T04:29:46.446Z,95083.95
2019-04-05T04:32:15.371Z,95091.91
2019-04-05T04:34:44.005Z,95094.17
2019-04-05T04:37:12.635Z,95089.56
2019-04-05T04:39:41.709Z,95084.75
2019-04-05T04:42:11.104Z,95083.62
2019-04-05T04:44:40.127Z,95070.91
2019-04-05T04:47:08.750Z,95083.70
2019-04-05T04:49:37.461Z,95090.66
2019-04-05T04:52:06.377Z,95085.73
2019-04-05T04:54:35.071Z,95082.12
2019-04-05T04:57:03.684Z,95075.08
2019-04-05T04:59:32.269Z,95072.00
2019-04-05T05:02:00.818Z,95074.72
2019-04-05T05:04:30.010Z,95072.88
2019-04-05T05:06:58.536Z,95070.33
2019-04-05T05:09:27.468Z,95076.45
2019-04-05T05:11:56.097Z,95076.97
2019-04-05T05:14:24.926Z,95082.78
2019-04-05T05:16:53.465Z,95080.13
2019-04-05T05:19:22.039Z,95081.35
2019-04-05T05:21:50.588Z,95086.16
2019-04-05T05:24:19.162Z,95088.42
2019-04-05T05:26:47.807Z,95086.67
2019-04-05T05:29:16.347Z,95084.14
2019-04-05T05:31:44.805Z,95078.70
2019-04-05T05:34:13.522Z,95077.92
2019-04-05T05:36:42.198Z,95078.70
2019-04-05T05:39:10.928Z,95078.52
2019-04-05T05:41:39.484Z,95080.66
2019-04-05T05:44:08.119Z,95076.86
2019-04-05T05:46:36.579Z,95072.34
2019-04-05T05:49:05.398Z,95082.00
2019-04-05T05:51:33.824Z,95073.90
2019-04-05T05:54:02.250Z,95068.97
2019-04-05T05:56:30.700Z,95075.30
2019-04-05T05:58:59.597Z,95082.27
2019-04-05T06:01:28.554Z,95078.53
2019-04-05T06:03:57.029Z,95079.98
2019-04-05T06:06:25.484Z,95085.62
2019-04-05T06:08:53.934Z,95091.37
2019-04-05T06:11:22.388Z,95087.05
2019-04-05T06:13:50.856Z,95080.92
2019-04-05T06:16:19.425Z,95092.50
2019-04-05T06:18:48.667Z,95088.97
2019-04-05T06:21:17.392Z,95094.81
2019-04-05T06:23:46.219Z,95089.32
2019-04-05T06:26:14.658Z,95087.50
2019-04-05T06:28:43.177Z,95090.02
2019-04-05T06:31:11.755Z,95088.30
2019-04-05T06:33:40.354Z,95091.78
2019-04-05T06:36:08.894Z,95089.56
2019-04-05T06:38:37.415Z,95092.23
2019-04-05T06:41:05.875Z,95092.54
2019-04-05T06:43:34.330Z,95086.73
2019-04-05T06:46:03.023Z,95091.73
2019-04-05T06:48:31.743Z,95088.32
2019-04-05T06:51:00.253Z,95081.36
2019-04-05T06:53:28.682Z,95081.67
2019-04-05T06:55:59.544Z,95077.62
2019-04-05T06:58:29.010Z,95075.58
2019-04-05T07:00:57.872Z,95069.41
2019-04-05T07:03:26.647Z,95068.94
2019-04-05T07:05:55.122Z,95075.50
2019-04-05T07:08:23.710Z,95068.49
2019-04-05T07:10:52.171Z,95065.73
2019-04-05T07:13:20.689Z,95077.37
2019-04-05T07:15:49.196Z,95074.83
2019-04-05T07:18:17.750Z,95079.52
2019-04-05T07:20:46.263Z,95089.50
2019-04-05T07:23:14.760Z,95085.19
2019-04-05T07:25:43.271Z,95085.39
2019-04-05T07:28:11.761Z,95082.28
2019-04-05T07:30:40.250Z,95075.66
2019-04-05T07:33:08.753Z,95074.66
2019-04-05T07:35:37.577Z,95074.51
2019-04-05T07:38:06.126Z,95058.48
2019-04-05T07:40:34.706Z,95055.90
2019-04-05T07:43:03.238Z,95060.82
2019-04-05T07:45:31.719Z,95051.31
2019-04-05T07:48:00.205Z,95051.30
2019-04-05T07:50:28.709Z,95046.61
2019-04-05T07:52:57.197Z,95045.38
2019-04-05T07:55:25.691Z,95036.09
2019-04-05T07:57:54.285Z,95032.09
2019-04-05T08:00:41.274Z,95024.80
2019-04-05T08:03:09.808Z,95024.20
2019-04-05T08:05:38.539Z,95021.70
2019-04-05T08:08:10.096Z,95016.87
2019-04-05T08:10:38.929Z,95015.39
2019-04-05T08:13:07.923Z,95014.11
2019-04-05T08:15:36.398Z,95013.37
2019-04-05T08:18:05.056Z,95011.42
2019-04-05T08:20:33.552Z,95008.25
2019-04-05T08:23:02.040Z,95007.36
2019-04-05T08:25:30.537Z,94999.45
2019-04-05T08:27:59.059Z,94994.80
2019-04-05T08:30:27.574Z,94997.74
2019-04-05T08:32:56.060Z,95000.94
2019-04-05T08:35:24.546Z,94992.39
2019-04-05T08:37:53.087Z,94996.53
2019-04-05T08:40:21.838Z,95002.33
2019-04-05T08:42:50.297Z,95001.14
2019-04-05T08:45:18.952Z,95005.28
2019-04-05T08:47:47.436Z,95002.30
2019-04-05T08:50:16.082Z,95008.33
2019-04-05T08:52:44.577Z,95010.38
2019-04-05T08:55:13.124Z,95007.96
2019-04-05T08:57:41.644Z,95007.45
2019-04-05T09:00:11.667Z,94998.27
2019-04-05T09:02:40.242Z,94996.31
2019-04-05T09:05:08.865Z,94987.43
2019-04-05T09:07:37.349Z,94993.53
2019-04-05T09:10:07.086Z,94992.69
2019-04-05T09:12:35.576Z,94993.11
2019-04-05T09:15:05.609Z,94988.96
2019-04-05T09:17:34.114Z,94990.30
2019-04-05T09:20:02.606Z,94985.94
2019-04-05T09:22:31.102Z,94981.03
2019-04-05T09:24:59.610Z,94982.52
2019-04-05T09:27:28.311Z,94974.43
2019-04-05T09:29:56.758Z,94971.17
2019-04-05T09:32:25.249Z,94971.04
2019-04-05T09:34:53.808Z,94967.12
2019-04-05T09:37:22.569Z,94966.41
2019-04-05T09:39:51.199Z,94968.41
2019-04-05T09:42:19.699Z,94964.98
2019-04-05T09:44:48.176Z,94966.00
2019-04-05T09:47:16.777Z,94956.06
2019-04-05T09:49:45.288Z,94952.25
2019-04-05T09:52:13.789Z,94950.86
2019-04-05T09:54:42.300Z,94946.76
2019-04-05T09:57:10.820Z,94945.39
2019-04-05T09:59:39.337Z,94943.07
2019-04-05T10:02:08.023Z,94938.23
2019-04-05T10:04:36.640Z,94932.19
2019-04-05T10:07:05.264Z,94934.59
2019-04-05T10:09:33.769Z,94922.79
2019-04-05T10:12:02.275Z,94926.88
2019-04-05T10:14:35.880Z,94929.55
2019-04-05T10:17:04.424Z,94925.69
2019-04-05T10:19:32.923Z,94917.51
2019-04-05T10:22:01.423Z,94925.43
2019-04-05T10:24:32.933Z,94920.86
2019-04-05T10:27:00.144Z,94914.42
2019-04-05T10:29:28.681Z,94915.19
2019-04-05T10:31:57.163Z,94910.86
2019-04-05T10:34:25.659Z,94908.89
2019-04-05T10:36:54.141Z,94899.97
2019-04-05T10:39:22.669Z,94906.85
2019-04-05T10:42:02.647Z,94900.73
2019-04-05T10:44:21.556Z,94901.84
2019-04-05T10:46:50.191Z,94903.04
2019-04-05T10:49:18.691Z,94906.39
2019-04-05T10:51:47.574Z,94908.36
2019-04-05T10:54:16.032Z,94907.98
2019-04-05T10:56:44.895Z,94904.47
2019-04-05T10:59:13.461Z,94899.66
2019-04-05T11:01:41.922Z,94903.91
2019-04-05T11:04:10.794Z,94908.45
2019-04-05T11:06:39.282Z,94904.27
2019-04-05T11:09:08.582Z,94902.13
2019-04-05T11:11:37.092Z,94901.30
2019-04-05T11:14:13.733Z,94899.63
2019-04-05T11:16:35.870Z,94894.23
2019-04-05T11:19:04.553Z,94894.29
2019-04-05T11:21:33.069Z,94896.69
2019-04-05T11:24:01.592Z,94893.95
2019-04-05T11:26:30.096Z,94897.25
2019-04-05T11:28:58.945Z,94890.78
2019-04-05T11:31:27.717Z,94894.66
2019-04-05T11:33:56.303Z,94897.09
2019-04-05T11:36:25.840Z,94897.92
2019-04-05T11:38:54.597Z,94895.45
2019-04-05T11:41:26.337Z,94895.44
2019-04-05T11:44:00.381Z,94891.69
2019-04-05T11:46:29.563Z,94895.75
2019-04-05T11:48:59.184Z,94900.09
2019-04-05T11:51:27.752Z,94899.52
2019-04-05T11:53:56.271Z,94899.52
2019-04-05T11:56:24.778Z,94898.71
2019-04-05T11:58:53.281Z,94904.69
2019-04-05T12:01:23.789Z,94890.37
2019-04-05T12:03:52.398Z,94898.14
2019-04-05T12:06:20.877Z,94908.78
2019-04-05T12:08:49.647Z,94897.53
2019-04-05T12:11:18.127Z,94904.34
2019-04-05T12:13:47.750Z,94900.92
2019-04-05T12:16:16.711Z,94900.97
2019-04-05T12:18:45.163Z,94895.41
2019-04-05T12:21:13.733Z,94896.30
2019-04-05T12:23:42.606Z,94899.80
2019-04-05T12:26:11.038Z,94893.87
2019-04-05T12:28:39.541Z,94898.94
2019-04-05T12:31:08.033Z,94902.44
2019-04-05T12:33:36.530Z,94899.80
2019-04-05T12:36:05.214Z,94893.59
2019-04-05T12:38:34.269Z,94891.98
2019-04-05T12:41:03.688Z,94897.34
2019-04-05T12:43:32.443Z,94895.47
2019-04-05T12:46:01.097Z,94893.05
2019-04-05T12:48:30.056Z,94885.73
2019-04-05T12:51:01.366Z,94893.27
2019-04-05T12:53:28.999Z,94886.01
2019-04-05T12:55:57.495Z,94894.41
2019-04-05T12:58:26.774Z,94881.94
2019-04-05T13:00:56.181Z,94884.66
2019-04-05T13:03:25.869Z,94876.98
2019-04-05T13:05:56.951Z,94872.16
2019-04-05T13:08:24.591Z,94874.28
2019-04-05T13:10:55.585Z,94876.80
2019-04-05T13:13:26.433Z,94879.23
2019-04-05T13:15:53.908Z,94874.31
2019-04-05T13:18:25.168Z,94868.53
2019-04-05T13:20:53.058Z,94879.16
2019-04-05T13:23:21.529Z,94881.08
2019-04-05T13:25:50.023Z,94874.38
2019-04-05T13:28:18.946Z,94874.02
2019-04-05T13:30:48.575Z,94881.22
2019-04-05T13:33:17.955Z,94873.42
2019-04-05T13:35:46.453Z,94871.25
2019-04-05T13:38:14.947Z,94869.44
2019-04-05T13:40:43.426Z,94870.59
2019-04-05T13:43:11.935Z,94863.81
2019-04-05T13:45:40.413Z,94866.44
2019-04-05T13:48:09.683Z,94861.80
2019-04-05T13:50:41.368Z,94868.33
2019-04-05T13:53:11.143Z,94864.75
2019-04-05T13:55:40.732Z,94868.19
2019-04-05T13:58:11.170Z,94866.24
2019-04-05T14:00:39.488Z,94868.45
2019-04-05T14:03:08.299Z,94868.77
2019-04-05T14:05:36.768Z,94865.86
2019-04-05T14:08:10.345Z,94864.63
2019-04-05T14:10:35.571Z,94872.42
2019-04-05T14:13:04.596Z,94875.58
2019-04-05T14:15:33.187Z,94872.25
2019-04-05T14:18:01.714Z,94877.23
2019-04-05T14:20:30.195Z,94878.19
2019-04-05T14:22:58.700Z,94877.38
2019-04-05T14:25:29.968Z,94874.68
2019-04-05T14:27:57.423Z,94875.20
2019-04-05T14:30:25.940Z,94885.70
2019-04-05T14:32:55.741Z,94885.88
2019-04-05T14:35:25.256Z,94891.02
2019-04-05T14:37:54.593Z,94880.97
2019-04-05T14:40:28.377Z,94902.11
2019-04-05T14:42:55.090Z,94895.41
2019-04-05T14:45:23.689Z,94902.77
2019-04-05T14:47:52.183Z,94907.92
2019-04-05T14:50:20.783Z,94897.10
2019-04-05T14:52:49.715Z,94902.79
2019-04-05T14:55:18.892Z,94908.47
2019-04-05T14:57:47.426Z,94906.03
2019-04-05T15:00:16.797Z,94911.14
2019-04-05T15:02:45.667Z,94911.13
2019-04-05T15:05:14.815Z,94914.31
2019-04-05T15:07:43.304Z,94920.72
2019-04-05T15:10:11.874Z,94916.84
2019-04-05T15:12:40.392Z,94917.00
2019-04-05T15:15:09.553Z,94915.61
2019-04-05T15:17:47.673Z,94912.34
2019-04-05T15:20:09.069Z,94908.22
2019-04-05T15:22:41.508Z,94909.84
2019-04-05T15:25:08.610Z,94908.42
2019-04-05T15:27:37.182Z,94908.13
2019-04-05T15:30:07.118Z,94916.62
2019-04-05T15:32:37.295Z,94917.04
2019-04-05T15:35:09.370Z,94917.84
2019-04-05T15:37:38.093Z,94920.81
2019-04-05T15:40:08.068Z,94913.95
2019-04-05T15:42:36.554Z,94910.47
2019-04-05T15:45:10.029Z,94912.72
2019-04-05T15:47:38.794Z,94907.86
2019-04-05T15:50:08.923Z,94912.75
2019-04-05T15:52:37.403Z,94915.11
2019-04-05T15:55:07.442Z,94912.33
2019-04-05T15:57:39.199Z,94909.45
2019-04-05T16:00:09.620Z,94912.36
2019-04-05T16:02:38.170Z,94908.72
2019-04-05T16:05:09.165Z,94914.14
2019-04-05T16:07:37.704Z,94909.97
2019-04-05T16:10:08.831Z,94908.61
2019-04-05T16:12:37.376Z,94911.41
2019-04-05T16:15:08.029Z,94917.21
2019-04-05T16:17:36.584Z,94916.06
2019-04-05T16:20:08.489Z,94916.13
2019-04-05T16:22:36.968Z,94916.87
2019-04-05T16:25:07.226Z,94919.44
2019-04-05T16:27:35.761Z,94924.30
2019-04-05T16:30:06.257Z,94922.67
2019-04-05T16:32:34.724Z,94922.77
2019-04-05T16:35:03.242Z,94926.03
2019-04-05T16:37:31.704Z,94925.97
2019-04-05T16:40:00.253Z,94930.42
2019-04-05T16:42:28.744Z,94927.92
2019-04-05T16:44:57.437Z,94921.52
2019-04-05T16:47:25.992Z,94929.50
2019-04-05T16:49:54.486Z,94927.34
2019-04-05T16:52:22.973Z,94936.25
2019-04-05T16:54:51.445Z,94934.34
2019-04-05T16:57:19.939Z,94940.29
2019-04-05T16:59:48.437Z,94939.67
2019-04-05T17:02:16.904Z,94943.24
2019-04-05T17:04:45.399Z,94942.33
2019-04-05T17:07:13.877Z,94941.13
2019-04-05T17:09:42.383Z,94944.11
2019-04-05T17:12:10.883Z,94952.02
2019-04-05T17:14:39.450Z,94953.42
2019-04-05T17:17:07.922Z,94952.14
2019-04-05T17:19:36.393Z,94961.94
2019-04-05T17:22:04.946Z,94962.39
2019-04-05T17:24:33.418Z,94960.39
2019-04-05T17:27:01.890Z,94964.13
2019-04-05T17:29:30.560Z,94956.08
2019-04-05T17:31:59.103Z,94961.66
2019-04-05T17:34:27.601Z,94961.84
2019-04-05T17:36:56.131Z,94958.46
2019-04-05T17:39:24.630Z,94963.15
2019-04-05T17:41:53.109Z,94964.26
2019-04-05T17:44:21.606Z,94962.33
2019-04-05T17:46:50.094Z,94967.61
2019-04-05T17:49:18.568Z,94962.22
2019-04-05T17:51:47.396Z,94960.34
2019-04-05T17:54:15.919Z,94962.91
2019-04-05T17:56:44.574Z,94960.23
2019-04-05T17:59:13.742Z,94958.48
2019-04-05T18:01:42.224Z,94959.15
2019-04-05T18:04:11.050Z,94953.58
2019-04-05T18:06:39.545Z,94955.31
2019-04-05T18:09:08.368Z,94962.66
2019-04-05T18:11:37.265Z,94967.89
2019-04-05T18:14:05.775Z,94965.84
2019-04-05T18:16:34.359Z,94964.21
2019-04-05T18:19:02.845Z,94964.05
2019-04-05T18:21:31.339Z,94958.36
2019-04-05T18:23:59.872Z,94963.20
2019-04-05T18:26:28.331Z,94964.97
2019-04-05T18:28:56.820Z,94964.63
2019-04-05T18:31:25.340Z,94967.94
2019-04-05T18:33:53.862Z,94967.55
2019-04-05T18:36:22.364Z,94966.17
2019-04-05T18:38:50.907Z,94965.35
2019-04-05T18:41:19.402Z,94961.57
2019-04-05T18:43:47.898Z,94964.33
2019-04-05T18:46:16.439Z,94960.97
2019-04-05T18:48:44.937Z,94967.95
2019-04-05T18:51:13.505Z,94968.11
2019-04-05T18:53:46.966Z,94967.22
2019-04-05T18:56:16.330Z,94964.19
2019-04-05T18:58:44.830Z,94968.11
2019-04-05T19:01:13.336Z,94973.16
2019-04-05T19:03:41.914Z,94979.73
2019-04-05T19:06:10.475Z,94968.32
2019-04-05T19:08:40.154Z,94977.89
2019-04-05T19:11:08.876Z,94983.23
2019-04-05T19:13:37.385Z,94976.94
2019-04-05T19:16:06.054Z,94979.52
2019-04-05T19:18:35.036Z,94987.83
2019-04-05T19:21:03.806Z,94987.23
2019-04-05T19:23:32.293Z,94996.66
2019-04-05T19:26:00.807Z,94996.22
2019-04-05T19:28:29.307Z,94998.80
2019-04-05T19:50:57.867Z,95022.17
2019-04-05T19:53:26.371Z,95027.42
2019-04-05T19:55:54.871Z,95033.91
2019-04-05T19:58:23.363Z,95035.81
2019-04-05T20:00:51.868Z,95028.78
2019-04-05T20:03:20.339Z,95033.97
2019-04-05T20:05:48.879Z,95030.57
2019-04-05T20:08:17.364Z,95038.70
2019-04-05T20:10:46.020Z,95038.75
2019-04-05T20:13:14.501Z,95034.20
2019-04-05T20:15:43.141Z,95026.97
2019-04-05T20:18:11.646Z,95050.03
2019-04-05T20:20:40.143Z,95047.17
2019-04-05T20:23:08.665Z,95050.55
2019-04-05T20:25:37.172Z,95042.25
2019-04-05T20:28:05.638Z,95048.19
2019-04-05T20:30:34.152Z,95053.01
2019-04-05T20:33:02.652Z,95053.12
2019-04-05T20:35:31.208Z,95055.93
2019-04-05T20:37:59.684Z,95055.17
2019-04-05T20:40:28.276Z,95060.00
2019-04-05T20:42:56.718Z,95062.05
2019-04-05T20:45:25.229Z,95061.42
2019-04-05T20:47:53.791Z,95064.86
2019-04-05T20:50:22.343Z,95060.14
2019-04-05T20:52:50.854Z,95067.27
2019-04-05T20:55:19.340Z,95060.03
2019-04-05T20:57:47.850Z,95062.58
2019-04-05T21:00:16.943Z,95062.79
2019-04-05T21:02:45.442Z,95066.70
2019-04-05T21:05:20.632Z,95075.67
2019-04-05T21:07:44.172Z,95070.23
2019-04-05T21:10:12.790Z,95070.61
2019-04-05T21:12:41.279Z,95069.13
2019-04-05T21:15:09.860Z,95073.42
2019-04-05T21:17:38.407Z,95074.97
2019-04-05T21:20:07.544Z,95079.05
2019-04-05T21:22:36.139Z,95074.25
2019-04-05T21:25:06.266Z,95081.11
2019-04-05T21:27:34.747Z,95082.03
2019-04-05T21:30:03.435Z,95083.22
2019-04-05T21:32:31.986Z,95087.38
2019-04-05T21:35:00.454Z,95085.73
2019-04-05T21:37:28.940Z,95079.53
2019-04-05T21:39:57.520Z,95085.27
2019-04-05T21:42:26.018Z,95087.93
2019-04-05T21:44:54.575Z,95080.66
2019-04-05T21:47:23.074Z,95080.39
2019-04-05T21:49:51.577Z,95083.42
2019-04-05T21:52:20.104Z,95082.44
2019-04-05T21:54:48.625Z,95083.88
2019-04-05T21:57:17.151Z,95086.69
2019-04-05T21:59:45.666Z,95084.54
2019-04-05T22:02:14.236Z,95079.41
2019-04-05T22:04:42.750Z,95081.70
2019-04-05T22:07:11.434Z,95083.55
2019-04-05T22:09:39.916Z,95083.18
2019-04-05T22:12:08.409Z,95087.38
2019-04-05T22:14:36.926Z,95089.73
2019-04-05T22:17:05.507Z,95084.52
2019-04-05T22:19:34.007Z,95089.33
2019-04-05T22:22:02.490Z,95087.11
2019-04-05T22:24:31.018Z,95093.05
2019-04-05T22:26:59.482Z,95094.90
2019-04-05T22:29:27.981Z,95094.48
2019-04-05T22:31:56.492Z,95091.65
2019-04-05T22:34:25.041Z,95090.55
2019-04-05T22:36:53.527Z,95089.91
2019-04-05T22:39:22.041Z,95087.07
2019-04-05T22:41:50.482Z,95087.96
2019-04-05T22:44:18.972Z,95079.56
2019-04-05T22:46:47.457Z,95084.89
2019-04-05T22:49:15.958Z,95078.53
2019-04-05T22:51:44.439Z,95075.16
2019-04-05T22:54:28.145Z,95065.62
2019-04-05T22:56:56.718Z,95071.50
2019-04-05T22:59:25.237Z,95065.17
2019-04-05T23:01:53.741Z,95066.30
2019-04-05T23:04:22.258Z,95071.97
2019-04-05T23:06:50.780Z,95061.13
2019-04-05T23:09:19.275Z,95061.75
2019-04-05T23:11:47.757Z,95059.91
2019-04-05T23:14:47.511Z,95062.87
2019-04-05T23:17:16.041Z,95066.53
2019-04-05T23:19:44.498Z,95063.56
2019-04-05T23:22:12.999Z,95071.12
2019-04-05T23:24:41.536Z,95068.45
2019-04-05T23:27:10.073Z,95073.40
2019-04-05T23:29:38.584Z,95073.61
2019-04-05T23:32:07.094Z,95063.08
2019-04-05T23:34:35.658Z,95067.86
2019-04-05T23:37:04.132Z,95074.31
2019-04-05T23:39:32.659Z,95070.02
2019-04-05T23:42:01.324Z,95068.07
2019-04-05T23:44:29.841Z,95073.22
2019-04-05T23:46:58.355Z,95071.09
2019-04-05T23:49:26.832Z,95060.77
2019-04-05T23:51:55.308Z,95067.70
2019-04-05T23:54:23.819Z,95072.82
2019-04-05T23:56:52.391Z,95070.47
2019-04-05T23:59:20.841Z,95072.82
